Αρχική σελίδα
METAR-TAF:

METAR-TAF

Αεροδρόμια :

Τζέντα, Σαουδική Αραβία

γεωγραφικό πλάτος: 21-42N, γεωγραφικό μήκος: 039-11E, υψόμετρο: 15 μ

Παρών καιρός

Η αναφορά έγινε 45 λεπτά πριν, στις 22:00 UTC
Άνεμος 4 kt από
Θερμοκρασία 30°C
Υγρασία 62%
Πίεση 1013 hPa
Ορατότητα 10 χλμ και άνω
Λίγα νέφη σε ύψος 4000 πόδια

METAR: OEJN 212200Z 32004KT 9999 FEW040 30/22 Q1013 NOSIG

Χρόνος: 01:45 (22:45 UTC)

Πρόγνωση Καιρού

Η αναφορά έγινε 5 ώρες και 45 λεπτά πριν, στις 17:00 UTC
Η πρόγνωση ισχύει από τις 21 στις 18 UTC έως τις 22 στις 24 UTC
Άνεμος 6 kt από Β/BA
Ορατότητα: 7000 μ
Λίγα νέφη σε ύψος 4000 πόδια
Διάσπαρτα νέφη σε ύψος 10000 πόδια
Καθιστάμενος
από 22 στις 06 UTC έως τις 22 στις 08 UTC
Άνεμος 14 kt από Δ/BΔ

TAF: OEJN 211700Z 2118/2224 02006KT 7000 FEW040 SCT100 BECMG 2206/2208 30014KT

Μετεωρολογικές αναφορές και προγνώσεις για περισσότερα από 4000 αεροδρόμια (δελτία METAR και TAF).

Οι διαθέσιμοι σταθμοί απεικονίζονται στο χάρτη με κίτρινες και κόκκινες κουκκίδες.

Μετακινήστε το ποντίκι πάνω από τις κουκκίδες για να δείτε το όνομα του σταθμού.

Στη συνέχεια, κάντε κλικ για να δείτε τις μετεωρολογικές αναφορές και τις προγνώσεις καιρού.

Για να αλλάξετε το χάρτη: κάντε κλικ στα πράσινα κουμπιά με τον μαύρο σταυρό για να ζουμάρετε, στο πράσινο κουμπί με την παύλα για να αφαιρέσετε το ζουμ ή στα πράσινα βέλη για να αντιπαραβάλλετε χάρτες.


METAR-TAF: